Time,TemperatureF,DewpointF,PressureIn,WindDirection,WindDirectionDegrees,WindSpeedMPH,WindSpeedGustMPH,Humidity,HourlyPrecipIn,Conditions,Clouds,dailyrainin,SoftwareType,DateUTC
2013-02-04 00:14:00,40.1,31.1,30.02,ESE,112,0.0,-999.0,70,-99.99,,,0.00,Acu-Link.com,2013-02-04 08:14:00,
2013-02-04 00:30:00,40.5,31.8,30.01,NE,45,0.0,-999.0,71,-99.99,,,0.00,Acu-Link.com,2013-02-04 08:30:00,
2013-02-04 00:45:00,39.9,31.6,30.01,ENE,67,0.0,-999.0,72,-99.99,,,0.00,Acu-Link.com,2013-02-04 08:45:00,
2013-02-04 01:00:00,39.6,30.3,30.01,East,90,0.0,-999.0,69,-99.99,,,0.00,Acu-Link.com,2013-02-04 09:00:00,
2013-02-04 01:15:00,39.9,30.9,30.00,East,90,0.0,-999.0,70,-99.99,,,0.00,Acu-Link.com,2013-02-04 09:15:00,
2013-02-04 01:30:00,39.7,31.8,30.00,NE,45,0.0,-999.0,73,-99.99,,,0.00,Acu-Link.com,2013-02-04 09:30:00,
2013-02-04 01:45:00,39.2,32.0,29.99,ENE,67,0.0,-999.0,75,-99.99,,,0.00,Acu-Link.com,2013-02-04 09:45:00,
2013-02-04 02:00:00,38.5,31.9,29.99,East,90,0.0,-999.0,77,-99.99,,,0.00,Acu-Link.com,2013-02-04 10:00:00,
2013-02-04 02:15:00,38.1,32.2,29.99,NNE,22,0.0,-999.0,79,-99.99,,,0.00,Acu-Link.com,2013-02-04 10:15:00,
2013-02-04 02:30:00,38.3,31.7,30.00,NE,45,0.0,-999.0,77,-99.99,,,0.00,Acu-Link.com,2013-02-04 10:30:00,
2013-02-04 02:46:00,38.1,32.5,29.99,NE,45,0.0,-999.0,80,-99.99,,,0.00,Acu-Link.com,2013-02-04 10:46:00,
2013-02-04 03:01:00,38.8,32.9,29.99,NE,45,0.0,-999.0,79,-99.99,,,0.00,Acu-Link.com,2013-02-04 11:01:00,
2013-02-04 03:16:00,39.0,31.8,29.99,East,90,0.0,-999.0,75,-99.99,,,0.00,Acu-Link.com,2013-02-04 11:16:00,
2013-02-04 03:31:00,38.7,30.1,30.00,ESE,112,0.0,-999.0,71,-99.99,,,0.00,Acu-Link.com,2013-02-04 11:31:00,
2013-02-04 03:46:00,39.4,30.4,29.98,ESE,112,0.0,-999.0,70,-99.99,,,0.00,Acu-Link.com,2013-02-04 11:46:00,
2013-02-04 04:01:00,39.2,30.3,29.99,NE,45,0.0,-999.0,70,-99.99,,,0.00,Acu-Link.com,2013-02-04 12:01:00,
2013-02-04 04:16:00,38.8,30.6,30.00,East,90,0.0,-999.0,72,-99.99,,,0.00,Acu-Link.com,2013-02-04 12:16:00,
2013-02-04 04:31:00,39.0,30.1,29.99,ENE,67,0.0,-999.0,70,-99.99,,,0.00,Acu-Link.com,2013-02-04 12:31:00,
2013-02-04 04:46:00,39.2,30.3,29.99,ENE,67,0.0,-999.0,70,-99.99,,,0.00,Acu-Link.com,2013-02-04 12:46:00,
2013-02-04 05:02:00,38.7,30.5,29.99,East,90,0.0,-999.0,72,-99.99,,,0.00,Acu-Link.com,2013-02-04 13:02:00,
2013-02-04 05:17:00,37.8,30.6,29.99,ENE,67,0.0,-999.0,75,-99.99,,,0.00,Acu-Link.com,2013-02-04 13:17:00,
2013-02-04 05:32:00,37.4,29.6,29.99,NE,45,0.0,-999.0,73,-99.99,,,0.00,Acu-Link.com,2013-02-04 13:32:00,
2013-02-04 05:47:00,37.6,30.4,29.99,East,90,0.0,-999.0,75,-99.99,,,0.00,Acu-Link.com,2013-02-04 13:47:00,
2013-02-04 06:02:00,37.9,31.0,29.99,East,90,0.0,-999.0,76,-99.99,,,0.00,Acu-Link.com,2013-02-04 14:02:00,
2013-02-04 06:17:00,37.9,30.4,30.00,East,90,0.0,-999.0,74,-99.99,,,0.00,Acu-Link.com,2013-02-04 14:17:00,
2013-02-04 06:32:00,38.5,30.3,30.00,ENE,67,0.0,-999.0,72,-99.99,,,0.00,Acu-Link.com,2013-02-04 14:32:00,
2013-02-04 06:48:00,39.0,30.4,30.00,ENE,67,0.0,-999.0,71,-99.99,,,0.00,Acu-Link.com,2013-02-04 14:48:00,
2013-02-04 07:03:00,39.7,30.4,30.01,ENE,67,0.0,-999.0,69,-99.99,,,0.00,Acu-Link.com,2013-02-04 15:03:00,
2013-02-04 07:18:00,39.2,31.6,30.01,SW,225,0.0,-999.0,74,-99.99,,,0.00,Acu-Link.com,2013-02-04 15:18:00,
2013-02-04 07:33:00,37.9,31.7,30.02,ESE,112,0.0,-999.0,78,-99.99,,,0.00,Acu-Link.com,2013-02-04 15:33:00,
2013-02-04 07:48:00,37.2,32.8,30.01,ESE,112,0.0,-999.0,84,-99.99,,,0.00,Acu-Link.com,2013-02-04 15:48:00,
2013-02-04 08:03:00,37.0,32.6,30.03,WSW,247,0.0,-999.0,84,-99.99,,,0.00,Acu-Link.com,2013-02-04 16:03:00,
2013-02-04 08:18:00,43.0,33.2,30.03,East,90,0.0,-999.0,68,-99.99,,,0.00,Acu-Link.com,2013-02-04 16:18:00,
2013-02-04 08:33:00,47.8,32.9,30.03,SW,225,0.0,-999.0,56,-99.99,,,0.00,Acu-Link.com,2013-02-04 16:33:00,
2013-02-04 08:48:00,48.9,32.5,30.04,ESE,112,1.7,-999.0,53,-99.99,,,0.00,Acu-Link.com,2013-02-04 16:48:00,
2013-02-04 09:04:00,50.0,32.6,30.04,NNW,337,3.7,-999.0,51,-99.99,,,0.00,Acu-Link.com,2013-02-04 17:04:00,
2013-02-04 09:19:00,51.3,31.2,30.04,West,270,0.0,-999.0,46,-99.99,,,0.00,Acu-Link.com,2013-02-04 17:19:00,
2013-02-04 09:34:00,51.6,32.6,30.05,SW,225,3.2,-999.0,48,-99.99,,,0.00,Acu-Link.com,2013-02-04 17:34:00,
2013-02-04 09:49:00,52.2,32.6,30.05,WNW,292,0.0,-999.0,47,-99.99,,,0.00,Acu-Link.com,2013-02-04 17:49:00,
2013-02-04 10:04:00,54.0,32.0,30.05,SSE,157,3.7,-999.0,43,-99.99,,,0.00,Acu-Link.com,2013-02-04 18:04:00,
2013-02-04 10:19:00,54.9,31.6,30.05,NNE,22,4.2,-999.0,41,-99.99,,,0.00,Acu-Link.com,2013-02-04 18:19:00,
2013-02-04 10:34:00,54.9,31.0,30.04,WSW,247,1.7,-999.0,40,-99.99,,,0.00,Acu-Link.com,2013-02-04 18:34:00,
2013-02-04 10:49:00,55.9,31.9,30.04,NNE,22,2.2,-999.0,40,-99.99,,,0.00,Acu-Link.com,2013-02-04 18:49:00,
2013-02-04 11:04:00,56.1,31.5,30.05,South,180,1.7,-999.0,39,-99.99,,,0.00,Acu-Link.com,2013-02-04 19:04:00,
2013-02-04 11:20:00,55.9,31.3,30.03,NNE,22,0.0,-999.0,39,-99.99,,,0.00,Acu-Link.com,2013-02-04 19:20:00,
2013-02-04 11:35:00,56.7,30.1,30.02,NW,315,0.0,-999.0,36,-99.99,,,0.00,Acu-Link.com,2013-02-04 19:35:00,
2013-02-04 11:50:00,57.7,30.2,30.01,SW,225,4.2,-999.0,35,-99.99,,,0.00,Acu-Link.com,2013-02-04 19:50:00,
2013-02-04 12:05:00,59.0,29.2,30.01,SW,225,3.2,-999.0,32,-99.99,,,0.00,Acu-Link.com,2013-02-04 20:05:00,
2013-02-04 12:20:00,58.8,27.4,30.00,South,180,4.7,-999.0,30,-99.99,,,0.00,Acu-Link.com,2013-02-04 20:20:00,
2013-02-04 12:35:00,59.5,28.8,29.99,SSE,157,2.7,-999.0,31,-99.99,,,0.00,Acu-Link.com,2013-02-04 20:35:00,
2013-02-04 12:50:00,58.8,29.8,29.98,NNE,22,3.2,-999.0,33,-99.99,,,0.00,Acu-Link.com,2013-02-04 20:50:00,
2013-02-04 13:05:00,58.8,31.2,29.98,NE,45,3.7,-999.0,35,-99.99,,,0.00,Acu-Link.com,2013-02-04 21:05:00,
2013-02-04 13:20:00,59.0,27.6,29.97,West,270,3.7,-999.0,30,-99.99,,,0.00,Acu-Link.com,2013-02-04 21:20:00,
2013-02-04 13:36:00,59.5,28.8,29.97,SW,225,4.7,-999.0,31,-99.99,,,0.00,Acu-Link.com,2013-02-04 21:36:00,
2013-02-04 13:51:00,59.0,28.4,29.97,South,180,6.3,-999.0,31,-99.99,,,0.00,Acu-Link.com,2013-02-04 21:51:00,
2013-02-04 14:06:00,59.2,25.2,29.96,NNW,337,3.2,-999.0,27,-99.99,,,0.00,Acu-Link.com,2013-02-04 22:06:00,
2013-02-04 14:21:00,58.6,24.7,29.96,SSE,157,6.8,-999.0,27,-99.99,,,0.00,Acu-Link.com,2013-02-04 22:21:00,
2013-02-04 14:36:00,58.5,24.6,29.96,West,270,5.3,-999.0,27,-99.99,,,0.00,Acu-Link.com,2013-02-04 22:36:00,
2013-02-04 14:51:00,57.6,23.0,29.95,SE,135,3.7,-999.0,26,-99.99,,,0.00,Acu-Link.com,2013-02-04 22:51:00,
2013-02-04 15:06:00,57.9,21.3,29.95,SW,225,0.0,-999.0,24,-99.99,,,0.00,Acu-Link.com,2013-02-04 23:06:00,
2013-02-04 15:21:00,57.0,18.5,29.96,South,180,3.7,-999.0,22,-99.99,,,0.00,Acu-Link.com,2013-02-04 23:21:00,
2013-02-04 15:36:00,58.6,15.2,29.96,NE,45,5.8,-999.0,18,-99.99,,,0.00,Acu-Link.com,2013-02-04 23:36:00,
2013-02-04 15:52:00,57.4,16.7,29.95,NW,315,2.7,-999.0,20,-99.99,,,0.00,Acu-Link.com,2013-02-04 23:52:00,
2013-02-04 16:07:00,56.5,13.5,29.95,SW,225,0.0,-999.0,18,-99.99,,,0.00,Acu-Link.com,2013-02-05 00:07:00,
2013-02-04 16:22:00,55.9,11.7,29.95,WSW,247,3.2,-999.0,17,-99.99,,,0.00,Acu-Link.com,2013-02-05 00:22:00,
2013-02-04 16:37:00,57.2,11.4,29.95,SSW,202,0.0,-999.0,16,-99.99,,,0.00,Acu-Link.com,2013-02-05 00:37:00,
2013-02-04 16:52:00,54.7,14.4,29.97,NE,45,1.7,-999.0,20,-99.99,,,0.00,Acu-Link.com,2013-02-05 00:52:00,
2013-02-04 17:07:00,52.2,14.5,29.95,NNE,22,0.0,-999.0,22,-99.99,,,0.00,Acu-Link.com,2013-02-05 01:07:00,
2013-02-04 17:22:00,50.4,15.0,29.95,SSE,157,0.0,-999.0,24,-99.99,,,0.00,Acu-Link.com,2013-02-05 01:22:00,
2013-02-04 17:38:00,48.6,20.8,29.96,NNE,22,0.0,-999.0,33,-99.99,,,0.00,Acu-Link.com,2013-02-05 01:38:00,
2013-02-04 17:53:00,46.6,19.8,29.96,NNE,22,1.7,-999.0,34,-99.99,,,0.00,Acu-Link.com,2013-02-05 01:53:00,
2013-02-04 18:08:00,45.5,15.1,29.96,ESE,112,0.0,-999.0,29,-99.99,,,0.00,Acu-Link.com,2013-02-05 02:08:00,
2013-02-04 18:23:00,45.7,16.1,29.96,ENE,67,0.0,-999.0,30,-99.99,,,0.00,Acu-Link.com,2013-02-05 02:23:00,
2013-02-04 18:38:00,45.0,17.6,29.97,NNE,22,0.0,-999.0,33,-99.99,,,0.00,Acu-Link.com,2013-02-05 02:38:00,
2013-02-04 18:53:00,43.7,16.5,29.99,NNE,22,0.0,-999.0,33,-99.99,,,0.00,Acu-Link.com,2013-02-05 02:53:00,
2013-02-04 19:08:00,43.3,16.8,29.97,ENE,67,0.0,-999.0,34,-99.99,,,0.00,Acu-Link.com,2013-02-05 03:08:00,
2013-02-04 19:23:00,42.6,17.5,29.97,NNE,22,0.0,-999.0,36,-99.99,,,0.00,Acu-Link.com,2013-02-05 03:23:00,
2013-02-04 19:38:00,41.7,19.2,29.98,North,0,0.0,-999.0,40,-99.99,,,0.00,Acu-Link.com,2013-02-05 03:38:00,
2013-02-04 19:54:00,41.7,19.8,29.98,NE,45,0.0,-999.0,41,-99.99,,,0.00,Acu-Link.com,2013-02-05 03:54:00,
2013-02-04 20:09:00,41.7,20.3,29.99,NE,45,0.0,-999.0,42,-99.99,,,0.00,Acu-Link.com,2013-02-05 04:09:00,
2013-02-04 20:24:00,41.2,22.0,29.98,NE,45,0.0,-999.0,46,-99.99,,,0.00,Acu-Link.com,2013-02-05 04:24:00,
2013-02-04 20:39:00,39.2,24.0,29.99,North,0,0.0,-999.0,54,-99.99,,,0.00,Acu-Link.com,2013-02-05 04:39:00,
2013-02-04 20:54:00,38.5,22.4,30.00,NE,45,0.0,-999.0,52,-99.99,,,0.00,Acu-Link.com,2013-02-05 04:54:00,
2013-02-04 21:09:00,41.7,19.8,30.00,NE,45,2.7,-999.0,41,-99.99,,,0.00,Acu-Link.com,2013-02-05 05:09:00,
2013-02-04 21:24:00,40.5,21.4,30.00,NE,45,0.0,-999.0,46,-99.99,,,0.00,Acu-Link.com,2013-02-05 05:24:00,
2013-02-04 21:39:00,39.6,20.5,30.00,NE,45,0.0,-999.0,46,-99.99,,,0.00,Acu-Link.com,2013-02-05 05:39:00,
2013-02-04 21:54:00,39.7,22.6,30.00,WNW,292,0.0,-999.0,50,-99.99,,,0.00,Acu-Link.com,2013-02-05 05:54:00,
2013-02-04 22:10:00,39.7,20.6,30.01,NE,45,0.0,-999.0,46,-99.99,,,0.00,Acu-Link.com,2013-02-05 06:10:00,
2013-02-04 22:25:00,40.6,20.4,30.00,NNE,22,0.0,-999.0,44,-99.99,,,0.00,Acu-Link.com,2013-02-05 06:25:00,
2013-02-04 22:40:00,40.6,23.0,30.01,East,90,0.0,-999.0,49,-99.99,,,0.00,Acu-Link.com,2013-02-05 06:40:00,
2013-02-04 22:55:00,41.5,24.3,29.98,ENE,67,0.0,-999.0,50,-99.99,,,0.00,Acu-Link.com,2013-02-05 06:55:00,
2013-02-04 23:10:00,41.5,23.3,29.99,East,90,0.0,-999.0,48,-99.99,,,0.00,Acu-Link.com,2013-02-05 07:10:00,
2013-02-04 23:25:00,39.9,24.2,30.00,East,90,0.0,-999.0,53,-99.99,,,0.00,Acu-Link.com,2013-02-05 07:25:00,
2013-02-04 23:40:00,39.6,23.4,29.99,East,90,0.0,-999.0,52,-99.99,,,0.00,Acu-Link.com,2013-02-05 07:40:00,
2013-02-04 23:55:00,38.7,26.8,29.99,NE,45,0.0,-999.0,62,-99.99,,,0.00,Acu-Link.com,2013-02-05 07:55:00,